Back to Top

Language: 

My Weather Underground Personal Weather Station Historical Data with Graphs...

Delerius Weather Station Historical Data
Daily Summary for April 5, 2017 Units:  Both    English   Metric
« Previous Day
Next Day »
Daily Weekly Monthly Yearly Custom
  High: Low: Average:
Temperature: 56.7 °F /  13.7 °C 42.4 °F /  5.8 °C 48.9 °F /  9.4 °C
Dew Point: 43.6 °F /  6.4 °C 37.9 °F /  3.3 °C 40.9 °F /  4.9 °C
Humidity: 85 % 59 % 74 %
Wind Speed: 15.0 mph /  24.1 km/h - 8.1 mph /  13 km/h
Wind Gust: 27.0 mph /  43.5 km/h - -
Wind:- - WNW
Pressure: 30.47 in /  1031.7 hPa 30.38 in /  1028.7 hPa -
Precipitation: 0.00 in /  0 mm    
Historical Graphs
 
 
Tabular Data for April 5, 2017
Time Temperature Dew Point Pressure Wind Wind Speed Wind Gust Humidity Rainfall Rate (Hourly) solar Conditions
00:03 44.1 °F /  6.7 °C 38.3 °F /  3.5 °C 30.42 in /  1030 hPa WNW 1.0 mph /  1.6 km/h 5.0 mph /  8 km/h 80 % 0.00 in /  0 mm 0 W/m2
00:08 44.1 °F /  6.7 °C 38.3 °F /  3.5 °C 30.42 in /  1030 hPa WNW 2.0 mph /  3.2 km/h 6.0 mph /  9.7 km/h 80 % 0.00 in /  0 mm 0 W/m2
00:12 43.9 °F /  6.6 °C 38.4 °F /  3.6 °C 30.42 in /  1030 hPa WNW 3.0 mph /  4.8 km/h 7.0 mph /  11.3 km/h 81 % 0.00 in /  0 mm 0 W/m2
00:17 43.9 °F /  6.6 °C 38.4 °F /  3.6 °C 30.42 in /  1030 hPa WNW 3.0 mph /  4.8 km/h 9.0 mph /  14.5 km/h 81 % 0.00 in /  0 mm 0 W/m2
00:23 43.9 °F /  6.6 °C 38.4 °F /  3.6 °C 30.42 in /  1030 hPa WNW 4.0 mph /  6.4 km/h 12.0 mph /  19.3 km/h 81 % 0.00 in /  0 mm 0 W/m2
00:28 43.9 °F /  6.6 °C 38.4 °F /  3.6 °C 30.42 in /  1030 hPa WNW 5.0 mph /  8 km/h 12.0 mph /  19.3 km/h 81 % 0.00 in /  0 mm 0 W/m2
00:33 43.9 °F /  6.6 °C 38.4 °F /  3.6 °C 30.42 in /  1030 hPa WNW 6.0 mph /  9.7 km/h 11.0 mph /  17.7 km/h 81 % 0.00 in /  0 mm 0 W/m2
00:38 44.1 °F /  6.7 °C 38.6 °F /  3.7 °C 30.42 in /  1030 hPa WNW 6.0 mph /  9.7 km/h 14.0 mph /  22.5 km/h 81 % 0.00 in /  0 mm 0 W/m2
00:43 44.2 °F /  6.8 °C 38.8 °F /  3.8 °C 30.41 in /  1029.7 hPa WNW 8.0 mph /  12.9 km/h 14.0 mph /  22.5 km/h 81 % 0.00 in /  0 mm 0 W/m2
00:48 44.2 °F /  6.8 °C 38.5 °F /  3.6 °C 30.41 in /  1029.7 hPa WNW 9.0 mph /  14.5 km/h 18.0 mph /  29 km/h 80 % 0.00 in /  0 mm 0 W/m2
00:53 44.4 °F /  6.9 °C 38.6 °F /  3.7 °C 30.41 in /  1029.7 hPa WNW 9.0 mph /  14.5 km/h 18.0 mph /  29 km/h 80 % 0.00 in /  0 mm 0 W/m2
00:58 44.4 °F /  6.9 °C 38.6 °F /  3.7 °C 30.41 in /  1029.7 hPa WNW 8.0 mph /  12.9 km/h 16.0 mph /  25.7 km/h 80 % 0.00 in /  0 mm 0 W/m2
01:03 44.4 °F /  6.9 °C 38.6 °F /  3.7 °C 30.41 in /  1029.7 hPa WNW 7.0 mph /  11.3 km/h 16.0 mph /  25.7 km/h 80 % 0.00 in /  0 mm 0 W/m2
01:08 44.2 °F /  6.8 °C 38.8 °F /  3.8 °C 30.41 in /  1029.7 hPa WNW 7.0 mph /  11.3 km/h 13.0 mph /  20.9 km/h 81 % 0.00 in /  0 mm 0 W/m2
01:13 44.2 °F /  6.8 °C 38.8 °F /  3.8 °C 30.41 in /  1029.7 hPa WNW 7.0 mph /  11.3 km/h 13.0 mph /  20.9 km/h 81 % 0.00 in /  0 mm 0 W/m2
01:18 44.2 °F /  6.8 °C 38.8 °F /  3.8 °C 30.41 in /  1029.7 hPa WNW 6.0 mph /  9.7 km/h 11.0 mph /  17.7 km/h 81 % 0.00 in /  0 mm 0 W/m2
01:23 44.1 °F /  6.7 °C 38.6 °F /  3.7 °C 30.41 in /  1029.7 hPa WNW 7.0 mph /  11.3 km/h 11.0 mph /  17.7 km/h 81 % 0.00 in /  0 mm 0 W/m2
01:28 44.1 °F /  6.7 °C 38.6 °F /  3.7 °C 30.41 in /  1029.7 hPa WNW 7.0 mph /  11.3 km/h 11.0 mph /  17.7 km/h 81 % 0.00 in /  0 mm 0 W/m2
01:33 44.1 °F /  6.7 °C 38.6 °F /  3.7 °C 30.41 in /  1029.7 hPa WNW 5.0 mph /  8 km/h 11.0 mph /  17.7 km/h 81 % 0.00 in /  0 mm 0 W/m2
01:38 43.9 °F /  6.6 °C 38.4 °F /  3.6 °C 30.41 in /  1029.7 hPa WNW 3.0 mph /  4.8 km/h 8.0 mph /  12.9 km/h 81 % 0.00 in /  0 mm 0 W/m2
01:43 43.7 °F /  6.5 °C 38.6 °F /  3.7 °C 30.40 in /  1029.3 hPa West 4.0 mph /  6.4 km/h 9.0 mph /  14.5 km/h 82 % 0.00 in /  0 mm 0 W/m2
01:48 43.5 °F /  6.4 °C 38.4 °F /  3.6 °C 30.41 in /  1029.7 hPa WNW 5.0 mph /  8 km/h 10.0 mph /  16.1 km/h 82 % 0.00 in /  0 mm 0 W/m2
01:53 43.5 °F /  6.4 °C 38.7 °F /  3.7 °C 30.41 in /  1029.7 hPa WNW 6.0 mph /  9.7 km/h 10.0 mph /  16.1 km/h 83 % 0.00 in /  0 mm 0 W/m2
01:58 43.3 °F /  6.3 °C 38.5 °F /  3.6 °C 30.40 in /  1029.3 hPa WNW 5.0 mph /  8 km/h 10.0 mph /  16.1 km/h 83 % 0.00 in /  0 mm 0 W/m2
02:03 43.3 °F /  6.3 °C 38.5 °F /  3.6 °C 30.40 in /  1029.3 hPa West 4.0 mph /  6.4 km/h 8.0 mph /  12.9 km/h 83 % 0.00 in /  0 mm 0 W/m2
02:08 43.3 °F /  6.3 °C 38.5 °F /  3.6 °C 30.40 in /  1029.3 hPa West 4.0 mph /  6.4 km/h 8.0 mph /  12.9 km/h 83 % 0.00 in /  0 mm 0 W/m2
02:13 43.3 °F /  6.3 °C 38.5 °F /  3.6 °C 30.40 in /  1029.3 hPa WNW 3.0 mph /  4.8 km/h 7.0 mph /  11.3 km/h 83 % 0.00 in /  0 mm 0 W/m2
02:18 43.2 °F /  6.2 °C 38.3 °F /  3.5 °C 30.40 in /  1029.3 hPa West 2.0 mph /  3.2 km/h 7.0 mph /  11.3 km/h 83 % 0.00 in /  0 mm 0 W/m2
02:23 43.0 °F /  6.1 °C 38.2 °F /  3.4 °C 30.40 in /  1029.3 hPa WNW 3.0 mph /  4.8 km/h 10.0 mph /  16.1 km/h 83 % 0.00 in /  0 mm 0 W/m2
02:28 42.8 °F /  6 °C 38.3 °F /  3.5 °C 30.40 in /  1029.3 hPa WNW 4.0 mph /  6.4 km/h 10.0 mph /  16.1 km/h 84 % 0.00 in /  0 mm 0 W/m2
02:33 42.6 °F /  5.9 °C 38.1 °F /  3.4 °C 30.40 in /  1029.3 hPa WNW 3.0 mph /  4.8 km/h 6.0 mph /  9.7 km/h 84 % 0.00 in /  0 mm 0 W/m2
02:38 42.6 °F /  5.9 °C 38.1 °F /  3.4 °C 30.40 in /  1029.3 hPa WNW 1.0 mph /  1.6 km/h 5.0 mph /  8 km/h 84 % 0.00 in /  0 mm 0 W/m2
02:43 42.4 °F /  5.8 °C 37.9 °F /  3.3 °C 30.40 in /  1029.3 hPa WNW 1.0 mph /  1.6 km/h 4.0 mph /  6.4 km/h 84 % 0.00 in /  0 mm 0 W/m2
02:48 42.4 °F /  5.8 °C 37.9 °F /  3.3 °C 30.40 in /  1029.3 hPa WNW 2.0 mph /  3.2 km/h 8.0 mph /  12.9 km/h 84 % 0.00 in /  0 mm 0 W/m2
02:53 42.6 °F /  5.9 °C 38.1 °F /  3.4 °C 30.40 in /  1029.3 hPa WNW 6.0 mph /  9.7 km/h 13.0 mph /  20.9 km/h 84 % 0.00 in /  0 mm 0 W/m2
02:58 43.0 °F /  6.1 °C 38.2 °F /  3.4 °C 30.40 in /  1029.3 hPa WNW 7.0 mph /  11.3 km/h 13.0 mph /  20.9 km/h 83 % 0.00 in /  0 mm 0 W/m2
03:03 43.2 °F /  6.2 °C 38.3 °F /  3.5 °C 30.39 in /  1029 hPa WNW 5.0 mph /  8 km/h 11.0 mph /  17.7 km/h 83 % 0.00 in /  0 mm 0 W/m2
03:08 43.2 °F /  6.2 °C 38.0 °F /  3.3 °C 30.40 in /  1029.3 hPa WNW 4.0 mph /  6.4 km/h 11.0 mph /  17.7 km/h 82 % 0.00 in /  0 mm 0 W/m2
03:13 43.2 °F /  6.2 °C 38.0 °F /  3.3 °C 30.39 in /  1029 hPa WNW 3.0 mph /  4.8 km/h 10.0 mph /  16.1 km/h 82 % 0.00 in /  0 mm 0 W/m2
03:18 43.2 °F /  6.2 °C 38.3 °F /  3.5 °C 30.40 in /  1029.3 hPa WNW 2.0 mph /  3.2 km/h 10.0 mph /  16.1 km/h 83 % 0.00 in /  0 mm 0 W/m2
03:23 43.2 °F /  6.2 °C 38.3 °F /  3.5 °C 30.40 in /  1029.3 hPa NW 1.0 mph /  1.6 km/h 7.0 mph /  11.3 km/h 83 % 0.00 in /  0 mm 0 W/m2
03:28 43.2 °F /  6.2 °C 38.3 °F /  3.5 °C 30.40 in /  1029.3 hPa NW 1.0 mph /  1.6 km/h 7.0 mph /  11.3 km/h 83 % 0.00 in /  0 mm 0 W/m2
03:33 43.2 °F /  6.2 °C 38.3 °F /  3.5 °C 30.40 in /  1029.3 hPa WNW 1.0 mph /  1.6 km/h 5.0 mph /  8 km/h 83 % 0.00 in /  0 mm 0 W/m2
03:38 43.0 °F /  6.1 °C 37.9 °F /  3.3 °C 30.39 in /  1029 hPa WNW 1.0 mph /  1.6 km/h 5.0 mph /  8 km/h 82 % 0.00 in /  0 mm 0 W/m2
03:43 43.0 °F /  6.1 °C 38.2 °F /  3.4 °C 30.40 in /  1029.3 hPa WNW 1.0 mph /  1.6 km/h 7.0 mph /  11.3 km/h 83 % 0.00 in /  0 mm 0 W/m2
03:48 43.0 °F /  6.1 °C 38.2 °F /  3.4 °C 30.40 in /  1029.3 hPa WNW 2.0 mph /  3.2 km/h 9.0 mph /  14.5 km/h 83 % 0.00 in /  0 mm 0 W/m2
03:53 43.2 °F /  6.2 °C 38.3 °F /  3.5 °C 30.40 in /  1029.3 hPa WNW 2.0 mph /  3.2 km/h 9.0 mph /  14.5 km/h 83 % 0.00 in /  0 mm 0 W/m2
03:58 43.2 °F /  6.2 °C 38.3 °F /  3.5 °C 30.40 in /  1029.3 hPa WNW 1.0 mph /  1.6 km/h 7.0 mph /  11.3 km/h 83 % 0.00 in /  0 mm 0 W/m2
04:03 43.0 °F /  6.1 °C 37.9 °F /  3.3 °C 30.40 in /  1029.3 hPa NW 1.0 mph /  1.6 km/h 7.0 mph /  11.3 km/h 82 % 0.00 in /  0 mm 0 W/m2
04:08 43.0 °F /  6.1 °C 38.2 °F /  3.4 °C 30.40 in /  1029.3 hPa Calm   7.0 mph /  11.3 km/h 83 % 0.00 in /  0 mm 0 W/m2
04:13 42.8 °F /  6 °C 38.0 °F /  3.3 °C 30.40 in /  1029.3 hPa Calm   1.0 mph /  1.6 km/h 83 % 0.00 in /  0 mm 0 W/m2
04:18 42.8 °F /  6 °C 38.0 °F /  3.3 °C 30.40 in /  1029.3 hPa Calm   1.0 mph /  1.6 km/h 83 % 0.00 in /  0 mm 0 W/m2
04:23 43.0 °F /  6.1 °C 38.5 °F /  3.6 °C 30.39 in /  1029 hPa WNW 2.0 mph /  3.2 km/h 10.0 mph /  16.1 km/h 84 % 0.00 in /  0 mm 0 W/m2
04:28 43.2 °F /  6.2 °C 38.7 °F /  3.7 °C 30.39 in /  1029 hPa WNW 5.0 mph /  8 km/h 12.0 mph /  19.3 km/h 84 % 0.00 in /  0 mm 0 W/m2
04:33 43.3 °F /  6.3 °C 38.8 °F /  3.8 °C 30.39 in /  1029 hPa WNW 5.0 mph /  8 km/h 12.0 mph /  19.3 km/h 84 % 0.00 in /  0 mm 0 W/m2
04:38 43.5 °F /  6.4 °C 39.0 °F /  3.9 °C 30.39 in /  1029 hPa WNW 5.0 mph /  8 km/h 12.0 mph /  19.3 km/h 84 % 0.00 in /  0 mm 0 W/m2
04:43 43.9 °F /  6.6 °C 39.1 °F /  3.9 °C 30.38 in /  1028.7 hPa WNW 4.0 mph /  6.4 km/h 11.0 mph /  17.7 km/h 83 % 0.00 in /  0 mm 0 W/m2
04:48 43.9 °F /  6.6 °C 39.1 °F /  3.9 °C 30.38 in /  1028.7 hPa WNW 2.0 mph /  3.2 km/h 11.0 mph /  17.7 km/h 83 % 0.00 in /  0 mm 0 W/m2
04:54 43.9 °F /  6.6 °C 39.1 °F /  3.9 °C 30.39 in /  1029 hPa Calm   5.0 mph /  8 km/h 83 % 0.00 in /  0 mm 0 W/m2
04:59 43.9 °F /  6.6 °C 39.1 °F /  3.9 °C 30.39 in /  1029 hPa NW 1.0 mph /  1.6 km/h 6.0 mph /  9.7 km/h 83 % 0.00 in /  0 mm 0 W/m2
05:04 43.9 °F /  6.6 °C 39.1 °F /  3.9 °C 30.39 in /  1029 hPa NW 2.0 mph /  3.2 km/h 14.0 mph /  22.5 km/h 83 % 0.00 in /  0 mm 0 W/m2
05:09 44.1 °F /  6.7 °C 39.2 °F /  4 °C 30.39 in /  1029 hPa NW 2.0 mph /  3.2 km/h 14.0 mph /  22.5 km/h 83 % 0.00 in /  0 mm 0 W/m2
05:14 44.1 °F /  6.7 °C 39.2 °F /  4 °C 30.40 in /  1029.3 hPa NNW 1.0 mph /  1.6 km/h 8.0 mph /  12.9 km/h 83 % 0.00 in /  0 mm 0 W/m2
05:19 44.1 °F /  6.7 °C 39.2 °F /  4 °C 30.40 in /  1029.3 hPa NW 3.0 mph /  4.8 km/h 12.0 mph /  19.3 km/h 83 % 0.00 in /  0 mm 0 W/m2
05:24 44.1 °F /  6.7 °C 38.9 °F /  3.8 °C 30.39 in /  1029 hPa WNW 5.0 mph /  8 km/h 12.0 mph /  19.3 km/h 82 % 0.00 in /  0 mm 0 W/m2
05:29 44.1 °F /  6.7 °C 38.9 °F /  3.8 °C 30.39 in /  1029 hPa WNW 5.0 mph /  8 km/h 11.0 mph /  17.7 km/h 82 % 0.00 in /  0 mm 0 W/m2
05:34 44.1 °F /  6.7 °C 39.2 °F /  4 °C 30.39 in /  1029 hPa NW 3.0 mph /  4.8 km/h 11.0 mph /  17.7 km/h 83 % 0.00 in /  0 mm 0 W/m2
05:39 43.9 °F /  6.6 °C 39.1 °F /  3.9 °C 30.39 in /  1029 hPa NW 2.0 mph /  3.2 km/h 11.0 mph /  17.7 km/h 83 % 0.00 in /  0 mm 0 W/m2
05:44 43.9 °F /  6.6 °C 38.7 °F /  3.7 °C 30.38 in /  1028.7 hPa NW 4.0 mph /  6.4 km/h 11.0 mph /  17.7 km/h 82 % 0.00 in /  0 mm 0 W/m2
05:49 44.1 °F /  6.7 °C 38.9 °F /  3.8 °C 30.38 in /  1028.7 hPa WNW 6.0 mph /  9.7 km/h 12.0 mph /  19.3 km/h 82 % 0.00 in /  0 mm 0 W/m2
05:54 44.2 °F /  6.8 °C 38.8 °F /  3.8 °C 30.39 in /  1029 hPa WNW 8.0 mph /  12.9 km/h 18.0 mph /  29 km/h 81 % 0.00 in /  0 mm 0 W/m2
05:59 44.4 °F /  6.9 °C 39.0 °F /  3.9 °C 30.39 in /  1029 hPa WNW 9.0 mph /  14.5 km/h 18.0 mph /  29 km/h 81 % 0.00 in /  0 mm 0 W/m2
06:04 44.6 °F /  7 °C 39.1 °F /  3.9 °C 30.39 in /  1029 hPa WNW 9.0 mph /  14.5 km/h 18.0 mph /  29 km/h 81 % 0.00 in /  0 mm 0 W/m2
06:09 44.8 °F /  7.1 °C 39.0 °F /  3.9 °C 30.39 in /  1029 hPa WNW 8.0 mph /  12.9 km/h 15.0 mph /  24.1 km/h 80 % 0.00 in /  0 mm 0 W/m2
06:14 44.8 °F /  7.1 °C 39.0 °F /  3.9 °C 30.39 in /  1029 hPa WNW 8.0 mph /  12.9 km/h 15.0 mph /  24.1 km/h 80 % 0.00 in /  0 mm 0 W/m2
06:19 44.8 °F /  7.1 °C 39.0 °F /  3.9 °C 30.39 in /  1029 hPa WNW 10.0 mph /  16.1 km/h 21.0 mph /  33.8 km/h 80 % 0.00 in /  0 mm 0 W/m2
06:20 44.8 °F /  7.1 °C 39.0 °F /  3.9 °C 30.40 in /  1029.3 hPa WNW 10.0 mph /  16.1 km/h 21.0 mph /  33.8 km/h 80 % 0.00 in /  0 mm 0 W/m2
06:25 45.0 °F /  7.2 °C 39.2 °F /  4 °C 30.40 in /  1029.3 hPa NW 11.0 mph /  17.7 km/h 21.0 mph /  33.8 km/h 80 % 0.00 in /  0 mm 0 W/m2
06:30 45.0 °F /  7.2 °C 39.2 °F /  4 °C 30.40 in /  1029.3 hPa NW 9.0 mph /  14.5 km/h 20.0 mph /  32.2 km/h 80 % 0.00 in /  0 mm 0 W/m2
06:35 44.8 °F /  7.1 °C 39.0 °F /  3.9 °C 30.40 in /  1029.3 hPa NW 7.0 mph /  11.3 km/h 13.0 mph /  20.9 km/h 80 % 0.00 in /  0 mm 5 W/m2
06:40 44.8 °F /  7.1 °C 39.0 °F /  3.9 °C 30.40 in /  1029.3 hPa NW 7.0 mph /  11.3 km/h 16.0 mph /  25.7 km/h 80 % 0.00 in /  0 mm 9 W/m2
06:45 45.0 °F /  7.2 °C 39.2 °F /  4 °C 30.41 in /  1029.7 hPa NW 8.0 mph /  12.9 km/h 16.0 mph /  25.7 km/h 80 % 0.00 in /  0 mm 12 W/m2
06:50 45.0 °F /  7.2 °C 39.2 °F /  4 °C 30.40 in /  1029.3 hPa NW 6.0 mph /  9.7 km/h 16.0 mph /  25.7 km/h 80 % 0.00 in /  0 mm 18 W/m2
06:55 45.1 °F /  7.3 °C 39.0 °F /  3.9 °C 30.41 in /  1029.7 hPa NNW 3.0 mph /  4.8 km/h 12.0 mph /  19.3 km/h 79 % 0.00 in /  0 mm 23 W/m2
07:00 45.1 °F /  7.3 °C 39.0 °F /  3.9 °C 30.42 in /  1030 hPa NNW 4.0 mph /  6.4 km/h 15.0 mph /  24.1 km/h 79 % 0.00 in /  0 mm 28 W/m2
07:05 45.1 °F /  7.3 °C 39.0 °F /  3.9 °C 30.41 in /  1029.7 hPa NW 7.0 mph /  11.3 km/h 19.0 mph /  30.6 km/h 79 % 0.00 in /  0 mm 33 W/m2
07:10 45.3 °F /  7.4 °C 39.2 °F /  4 °C 30.42 in /  1030 hPa NW 9.0 mph /  14.5 km/h 19.0 mph /  30.6 km/h 79 % 0.00 in /  0 mm 40 W/m2
07:15 45.3 °F /  7.4 °C 39.2 °F /  4 °C 30.42 in /  1030 hPa NW 9.0 mph /  14.5 km/h 18.0 mph /  29 km/h 79 % 0.00 in /  0 mm 46 W/m2
07:20 45.5 °F /  7.5 °C 39.4 °F /  4.1 °C 30.42 in /  1030 hPa NW 8.0 mph /  12.9 km/h 14.0 mph /  22.5 km/h 79 % 0.00 in /  0 mm 49 W/m2
07:25 45.5 °F /  7.5 °C 39.4 °F /  4.1 °C 30.42 in /  1030 hPa WNW 9.0 mph /  14.5 km/h 21.0 mph /  33.8 km/h 79 % 0.00 in /  0 mm 53 W/m2
07:30 45.7 °F /  7.6 °C 39.5 °F /  4.2 °C 30.42 in /  1030 hPa WNW 10.0 mph /  16.1 km/h 21.0 mph /  33.8 km/h 79 % 0.00 in /  0 mm 54 W/m2
07:35 45.7 °F /  7.6 °C 39.5 °F /  4.2 °C 30.41 in /  1029.7 hPa WNW 9.0 mph /  14.5 km/h 16.0 mph /  25.7 km/h 79 % 0.00 in /  0 mm 58 W/m2
07:40 45.7 °F /  7.6 °C 39.5 °F /  4.2 °C 30.42 in /  1030 hPa WNW 8.0 mph /  12.9 km/h 18.0 mph /  29 km/h 79 % 0.00 in /  0 mm 62 W/m2
07:45 45.9 °F /  7.7 °C 39.7 °F /  4.3 °C 30.42 in /  1030 hPa NW 7.0 mph /  11.3 km/h 18.0 mph /  29 km/h 79 % 0.00 in /  0 mm 69 W/m2
07:50 46.0 °F /  7.8 °C 39.9 °F /  4.4 °C 30.42 in /  1030 hPa NW 6.0 mph /  9.7 km/h 13.0 mph /  20.9 km/h 79 % 0.00 in /  0 mm 72 W/m2
07:56 46.2 °F /  7.9 °C 40.1 °F /  4.5 °C 30.42 in /  1030 hPa WNW 6.0 mph /  9.7 km/h 13.0 mph /  20.9 km/h 79 % 0.00 in /  0 mm 83 W/m2
08:01 46.4 °F /  8 °C 39.9 °F /  4.4 °C 30.43 in /  1030.4 hPa WNW 7.0 mph /  11.3 km/h 15.0 mph /  24.1 km/h 78 % 0.00 in /  0 mm 100 W/m2
08:06 46.6 °F /  8.1 °C 40.1 °F /  4.5 °C 30.43 in /  1030.4 hPa WNW 8.0 mph /  12.9 km/h 16.0 mph /  25.7 km/h 78 % 0.00 in /  0 mm 193 W/m2
08:11 46.9 °F /  8.3 °C 40.4 °F /  4.7 °C 30.43 in /  1030.4 hPa WNW 8.0 mph /  12.9 km/h 16.0 mph /  25.7 km/h 78 % 0.00 in /  0 mm 220 W/m2
08:16 47.5 °F /  8.6 °C 41.0 °F /  5 °C 30.43 in /  1030.4 hPa WNW 8.0 mph /  12.9 km/h 15.0 mph /  24.1 km/h 78 % 0.00 in /  0 mm 207 W/m2
08:21 47.8 °F /  8.8 °C 41.0 °F /  5 °C 30.43 in /  1030.4 hPa WNW 8.0 mph /  12.9 km/h 15.0 mph /  24.1 km/h 77 % 0.00 in /  0 mm 237 W/m2
08:26 48.2 °F /  9 °C 41.3 °F /  5.2 °C 30.43 in /  1030.4 hPa WNW 8.0 mph /  12.9 km/h 16.0 mph /  25.7 km/h 77 % 0.00 in /  0 mm 250 W/m2
08:31 48.6 °F /  9.2 °C 41.3 °F /  5.2 °C 30.43 in /  1030.4 hPa WNW 10.0 mph /  16.1 km/h 23.0 mph /  37 km/h 76 % 0.00 in /  0 mm 234 W/m2
08:36 48.6 °F /  9.2 °C 41.3 °F /  5.2 °C 30.43 in /  1030.4 hPa WNW 8.0 mph /  12.9 km/h 23.0 mph /  37 km/h 76 % 0.00 in /  0 mm 91 W/m2
08:41 48.7 °F /  9.3 °C 41.2 °F /  5.1 °C 30.43 in /  1030.4 hPa WNW 7.0 mph /  11.3 km/h 16.0 mph /  25.7 km/h 75 % 0.00 in /  0 mm 271 W/m2
08:46 48.9 °F /  9.4 °C 41.3 °F /  5.2 °C 30.43 in /  1030.4 hPa WNW 7.0 mph /  11.3 km/h 16.0 mph /  25.7 km/h 75 % 0.00 in /  0 mm 123 W/m2
08:51 49.3 °F /  9.6 °C 41.7 °F /  5.4 °C 30.44 in /  1030.7 hPa WNW 7.0 mph /  11.3 km/h 16.0 mph /  25.7 km/h 75 % 0.00 in /  0 mm 299 W/m2
08:56 49.5 °F /  9.7 °C 41.5 °F /  5.3 °C 30.44 in /  1030.7 hPa WNW 8.0 mph /  12.9 km/h 16.0 mph /  25.7 km/h 74 % 0.00 in /  0 mm 144 W/m2
09:01 49.6 °F /  9.8 °C 41.7 °F /  5.4 °C 30.43 in /  1030.4 hPa WNW 7.0 mph /  11.3 km/h 14.0 mph /  22.5 km/h 74 % 0.00 in /  0 mm 125 W/m2
09:06 49.6 °F /  9.8 °C 41.3 °F /  5.2 °C 30.43 in /  1030.4 hPa NW 8.0 mph /  12.9 km/h 20.0 mph /  32.2 km/h 73 % 0.00 in /  0 mm 95 W/m2
09:11 49.3 °F /  9.6 °C 41.3 °F /  5.2 °C 30.43 in /  1030.4 hPa WNW 9.0 mph /  14.5 km/h 20.0 mph /  32.2 km/h 74 % 0.00 in /  0 mm 95 W/m2
09:16 48.9 °F /  9.4 °C 41.0 °F /  5 °C 30.43 in /  1030.4 hPa WNW 10.0 mph /  16.1 km/h 19.0 mph /  30.6 km/h 74 % 0.00 in /  0 mm 135 W/m2
09:21 48.9 °F /  9.4 °C 41.3 °F /  5.2 °C 30.43 in /  1030.4 hPa WNW 9.0 mph /  14.5 km/h 19.0 mph /  30.6 km/h 75 % 0.00 in /  0 mm 253 W/m2
09:26 49.1 °F /  9.5 °C 41.5 °F /  5.3 °C 30.43 in /  1030.4 hPa NW 7.0 mph /  11.3 km/h 19.0 mph /  30.6 km/h 75 % 0.00 in /  0 mm 239 W/m2
09:31 49.3 °F /  9.6 °C 41.7 °F /  5.4 °C 30.44 in /  1030.7 hPa WNW 8.0 mph /  12.9 km/h 19.0 mph /  30.6 km/h 75 % 0.00 in /  0 mm 216 W/m2
09:36 49.5 °F /  9.7 °C 41.5 °F /  5.3 °C 30.44 in /  1030.7 hPa WNW 10.0 mph /  16.1 km/h 21.0 mph /  33.8 km/h 74 % 0.00 in /  0 mm 181 W/m2
09:41 49.8 °F /  9.9 °C 41.9 °F /  5.5 °C 30.44 in /  1030.7 hPa WNW 11.0 mph /  17.7 km/h 21.0 mph /  33.8 km/h 74 % 0.00 in /  0 mm 533 W/m2
09:46 50.4 °F /  10.2 °C 42.4 °F /  5.8 °C 30.44 in /  1030.7 hPa WNW 11.0 mph /  17.7 km/h 21.0 mph /  33.8 km/h 74 % 0.00 in /  0 mm 566 W/m2
09:51 50.9 °F /  10.5 °C 42.2 °F /  5.7 °C 30.44 in /  1030.7 hPa WNW 12.0 mph /  19.3 km/h 21.0 mph /  33.8 km/h 72 % 0.00 in /  0 mm 207 W/m2
09:56 51.1 °F /  10.6 °C 42.4 °F /  5.8 °C 30.45 in /  1031 hPa WNW 11.0 mph /  17.7 km/h 20.0 mph /  32.2 km/h 72 % 0.00 in /  0 mm 209 W/m2
10:01 50.7 °F /  10.4 °C 41.7 °F /  5.4 °C 30.44 in /  1030.7 hPa WNW 10.0 mph /  16.1 km/h 20.0 mph /  32.2 km/h 71 % 0.00 in /  0 mm 102 W/m2
10:06 50.4 °F /  10.2 °C 41.3 °F /  5.2 °C 30.44 in /  1030.7 hPa WNW 12.0 mph /  19.3 km/h 22.0 mph /  35.4 km/h 71 % 0.00 in /  0 mm 130 W/m2
10:12 50.0 °F /  10 °C 41.3 °F /  5.2 °C 30.44 in /  1030.7 hPa WNW 13.0 mph /  20.9 km/h 23.0 mph /  37 km/h 72 % 0.00 in /  0 mm 151 W/m2
10:17 50.4 °F /  10.2 °C 41.7 °F /  5.4 °C 30.44 in /  1030.7 hPa WNW 12.0 mph /  19.3 km/h 23.0 mph /  37 km/h 72 % 0.00 in /  0 mm 603 W/m2
10:20 50.9 °F /  10.5 °C 41.8 °F /  5.4 °C 30.45 in /  1031 hPa WNW 12.0 mph /  19.3 km/h 22.0 mph /  35.4 km/h 71 % 0.00 in /  0 mm 654 W/m2
10:25 51.6 °F /  10.9 °C 41.8 °F /  5.4 °C 30.44 in /  1030.7 hPa WNW 11.0 mph /  17.7 km/h 21.0 mph /  33.8 km/h 69 % 0.00 in /  0 mm 738 W/m2
10:30 52.3 °F /  11.3 °C 42.1 °F /  5.6 °C 30.44 in /  1030.7 hPa WNW 10.0 mph /  16.1 km/h 20.0 mph /  32.2 km/h 68 % 0.00 in /  0 mm 308 W/m2
10:35 52.7 °F /  11.5 °C 42.0 °F /  5.6 °C 30.44 in /  1030.7 hPa WNW 8.0 mph /  12.9 km/h 15.0 mph /  24.1 km/h 67 % 0.00 in /  0 mm 253 W/m2
10:40 52.9 °F /  11.6 °C 42.2 °F /  5.7 °C 30.44 in /  1030.7 hPa WNW 7.0 mph /  11.3 km/h 15.0 mph /  24.1 km/h 67 % 0.00 in /  0 mm 276 W/m2
10:45 52.9 °F /  11.6 °C 42.2 °F /  5.7 °C 30.45 in /  1031 hPa WNW 7.0 mph /  11.3 km/h 14.0 mph /  22.5 km/h 67 % 0.00 in /  0 mm 246 W/m2
10:50 52.7 °F /  11.5 °C 41.7 °F /  5.4 °C 30.45 in /  1031 hPa NW 9.0 mph /  14.5 km/h 18.0 mph /  29 km/h 66 % 0.00 in /  0 mm 262 W/m2
10:55 52.7 °F /  11.5 °C 41.7 °F /  5.4 °C 30.45 in /  1031 hPa WNW 9.0 mph /  14.5 km/h 18.0 mph /  29 km/h 66 % 0.00 in /  0 mm 207 W/m2
11:00 52.5 °F /  11.4 °C 41.5 °F /  5.3 °C 30.45 in /  1031 hPa WNW 9.0 mph /  14.5 km/h 19.0 mph /  30.6 km/h 66 % 0.00 in /  0 mm 216 W/m2
11:05 52.5 °F /  11.4 °C 41.9 °F /  5.5 °C 30.45 in /  1031 hPa WNW 9.0 mph /  14.5 km/h 19.0 mph /  30.6 km/h 67 % 0.00 in /  0 mm 213 W/m2
11:10 52.3 °F /  11.3 °C 41.7 °F /  5.4 °C 30.45 in /  1031 hPa WNW 9.0 mph /  14.5 km/h 15.0 mph /  24.1 km/h 67 % 0.00 in /  0 mm 287 W/m2
11:15 52.3 °F /  11.3 °C 42.1 °F /  5.6 °C 30.45 in /  1031 hPa NW 9.0 mph /  14.5 km/h 16.0 mph /  25.7 km/h 68 % 0.00 in /  0 mm 329 W/m2
11:20 52.7 °F /  11.5 °C 42.4 °F /  5.8 °C 30.45 in /  1031 hPa WNW 9.0 mph /  14.5 km/h 16.0 mph /  25.7 km/h 68 % 0.00 in /  0 mm 742 W/m2
11:25 53.2 °F /  11.8 °C 42.6 °F /  5.9 °C 30.45 in /  1031 hPa WNW 10.0 mph /  16.1 km/h 22.0 mph /  35.4 km/h 67 % 0.00 in /  0 mm 805 W/m2
11:30 53.8 °F /  12.1 °C 42.3 °F /  5.7 °C 30.45 in /  1031 hPa WNW 12.0 mph /  19.3 km/h 22.0 mph /  35.4 km/h 65 % 0.00 in /  0 mm 904 W/m2
11:35 54.3 °F /  12.4 °C 42.8 °F /  6 °C 30.45 in /  1031 hPa NW 11.0 mph /  17.7 km/h 21.0 mph /  33.8 km/h 65 % 0.00 in /  0 mm 904 W/m2
11:40 54.9 °F /  12.7 °C 42.5 °F /  5.8 °C 30.44 in /  1030.7 hPa WNW 13.0 mph /  20.9 km/h 23.0 mph /  37 km/h 63 % 0.00 in /  0 mm 759 W/m2
11:45 55.0 °F /  12.8 °C 43.1 °F /  6.2 °C 30.44 in /  1030.7 hPa WNW 14.0 mph /  22.5 km/h 23.0 mph /  37 km/h 64 % 0.00 in /  0 mm 872 W/m2
11:50 55.2 °F /  12.9 °C 43.2 °F /  6.2 °C 30.44 in /  1030.7 hPa WNW 12.0 mph /  19.3 km/h 24.0 mph /  38.6 km/h 64 % 0.00 in /  0 mm 323 W/m2
11:55 54.7 °F /  12.6 °C 42.3 °F /  5.7 °C 30.45 in /  1031 hPa WNW 13.0 mph /  20.9 km/h 24.0 mph /  38.6 km/h 63 % 0.00 in /  0 mm 882 W/m2
12:00 54.3 °F /  12.4 °C 42.4 °F /  5.8 °C 30.44 in /  1030.7 hPa WNW 13.0 mph /  20.9 km/h 24.0 mph /  38.6 km/h 64 % 0.00 in /  0 mm 285 W/m2
12:06 54.1 °F /  12.3 °C 42.2 °F /  5.7 °C 30.45 in /  1031 hPa WNW 13.0 mph /  20.9 km/h 22.0 mph /  35.4 km/h 64 % 0.00 in /  0 mm 243 W/m2
12:11 54.1 °F /  12.3 °C 42.2 °F /  5.7 °C 30.45 in /  1031 hPa WNW 12.0 mph /  19.3 km/h 21.0 mph /  33.8 km/h 64 % 0.00 in /  0 mm 325 W/m2
12:16 54.0 °F /  12.2 °C 42.1 °F /  5.6 °C 30.45 in /  1031 hPa NW 10.0 mph /  16.1 km/h 18.0 mph /  29 km/h 64 % 0.00 in /  0 mm 285 W/m2
12:21 53.8 °F /  12.1 °C 41.9 °F /  5.5 °C 30.45 in /  1031 hPa NW 10.0 mph /  16.1 km/h 20.0 mph /  32.2 km/h 64 % 0.00 in /  0 mm 274 W/m2
12:26 54.0 °F /  12.2 °C 42.1 °F /  5.6 °C 30.45 in /  1031 hPa NW 9.0 mph /  14.5 km/h 20.0 mph /  32.2 km/h 64 % 0.00 in /  0 mm 798 W/m2
12:31 54.7 °F /  12.6 °C 42.3 °F /  5.7 °C 30.45 in /  1031 hPa NW 11.0 mph /  17.7 km/h 23.0 mph /  37 km/h 63 % 0.00 in /  0 mm 798 W/m2
12:36 54.9 °F /  12.7 °C 42.1 °F /  5.6 °C 30.45 in /  1031 hPa NW 11.0 mph /  17.7 km/h 23.0 mph /  37 km/h 62 % 0.00 in /  0 mm 348 W/m2
12:41 54.9 °F /  12.7 °C 42.5 °F /  5.8 °C 30.44 in /  1030.7 hPa NW 11.0 mph /  17.7 km/h 22.0 mph /  35.4 km/h 63 % 0.00 in /  0 mm 348 W/m2
12:46 55.0 °F /  12.8 °C 43.1 °F /  6.2 °C 30.44 in /  1030.7 hPa WNW 13.0 mph /  20.9 km/h 22.0 mph /  35.4 km/h 64 % 0.00 in /  0 mm 951 W/m2
12:51 55.4 °F /  13 °C 43.0 °F /  6.1 °C 30.44 in /  1030.7 hPa WNW 13.0 mph /  20.9 km/h 21.0 mph /  33.8 km/h 63 % 0.00 in /  0 mm 199 W/m2
12:56 55.2 °F /  12.9 °C 42.4 °F /  5.8 °C 30.44 in /  1030.7 hPa WNW 14.0 mph /  22.5 km/h 21.0 mph /  33.8 km/h 62 % 0.00 in /  0 mm 830 W/m2
13:01 54.9 °F /  12.7 °C 42.1 °F /  5.6 °C 30.44 in /  1030.7 hPa WNW 14.0 mph /  22.5 km/h 23.0 mph /  37 km/h 62 % 0.00 in /  0 mm 258 W/m2
13:06 54.3 °F /  12.4 °C 42.0 °F /  5.6 °C 30.44 in /  1030.7 hPa WNW 13.0 mph /  20.9 km/h 23.0 mph /  37 km/h 63 % 0.00 in /  0 mm 318 W/m2
13:11 54.1 °F /  12.3 °C 42.2 °F /  5.7 °C 30.44 in /  1030.7 hPa WNW 12.0 mph /  19.3 km/h 23.0 mph /  37 km/h 64 % 0.00 in /  0 mm 279 W/m2
13:16 54.1 °F /  12.3 °C 42.2 °F /  5.7 °C 30.44 in /  1030.7 hPa WNW 12.0 mph /  19.3 km/h 23.0 mph /  37 km/h 64 % 0.00 in /  0 mm 517 W/m2
13:21 54.9 °F /  12.7 °C 42.9 °F /  6.1 °C 30.43 in /  1030.4 hPa WNW 13.0 mph /  20.9 km/h 22.0 mph /  35.4 km/h 64 % 0.00 in /  0 mm 877 W/m2
13:26 55.0 °F /  12.8 °C 42.7 °F /  5.9 °C 30.43 in /  1030.4 hPa WNW 14.0 mph /  22.5 km/h 23.0 mph /  37 km/h 63 % 0.00 in /  0 mm 287 W/m2
13:31 54.9 °F /  12.7 °C 42.5 °F /  5.8 °C 30.43 in /  1030.4 hPa WNW 14.0 mph /  22.5 km/h 23.0 mph /  37 km/h 63 % 0.00 in /  0 mm 221 W/m2
13:33 54.7 °F /  12.6 °C 42.7 °F /  5.9 °C 30.43 in /  1030.4 hPa WNW 13.0 mph /  20.9 km/h 23.0 mph /  37 km/h 64 % 0.00 in /  0 mm 243 W/m2
13:38 54.5 °F /  12.5 °C 42.2 °F /  5.7 °C 30.43 in /  1030.4 hPa WNW 11.0 mph /  17.7 km/h 22.0 mph /  35.4 km/h 63 % 0.00 in /  0 mm 274 W/m2
13:43 54.3 °F /  12.4 °C 42.4 °F /  5.8 °C 30.43 in /  1030.4 hPa WNW 11.0 mph /  17.7 km/h 19.0 mph /  30.6 km/h 64 % 0.00 in /  0 mm 244 W/m2
13:48 54.1 °F /  12.3 °C 42.6 °F /  5.9 °C 30.43 in /  1030.4 hPa WNW 10.0 mph /  16.1 km/h 19.0 mph /  30.6 km/h 65 % 0.00 in /  0 mm 234 W/m2
13:53 54.1 °F /  12.3 °C 43.0 °F /  6.1 °C 30.43 in /  1030.4 hPa WNW 10.0 mph /  16.1 km/h 21.0 mph /  33.8 km/h 66 % 0.00 in /  0 mm 357 W/m2
13:58 54.3 °F /  12.4 °C 42.8 °F /  6 °C 30.43 in /  1030.4 hPa WNW 11.0 mph /  17.7 km/h 21.0 mph /  33.8 km/h 65 % 0.00 in /  0 mm 276 W/m2
14:03 54.3 °F /  12.4 °C 42.8 °F /  6 °C 30.42 in /  1030 hPa WNW 11.0 mph /  17.7 km/h 22.0 mph /  35.4 km/h 65 % 0.00 in /  0 mm 450 W/m2
14:08 54.7 °F /  12.6 °C 42.7 °F /  5.9 °C 30.42 in /  1030 hPa WNW 13.0 mph /  20.9 km/h 22.0 mph /  35.4 km/h 64 % 0.00 in /  0 mm 807 W/m2
14:13 55.4 °F /  13 °C 43.0 °F /  6.1 °C 30.42 in /  1030 hPa West 14.0 mph /  22.5 km/h 21.0 mph /  33.8 km/h 63 % 0.00 in /  0 mm 840 W/m2
14:18 55.8 °F /  13.2 °C 42.9 °F /  6.1 °C 30.43 in /  1030.4 hPa West 14.0 mph /  22.5 km/h 22.0 mph /  35.4 km/h 62 % 0.00 in /  0 mm 766 W/m2
14:23 56.1 °F /  13.4 °C 42.8 °F /  6 °C 30.42 in /  1030 hPa WNW 14.0 mph /  22.5 km/h 24.0 mph /  38.6 km/h 61 % 0.00 in /  0 mm 659 W/m2
14:28 56.5 °F /  13.6 °C 43.2 °F /  6.2 °C 30.42 in /  1030 hPa WNW 14.0 mph /  22.5 km/h 24.0 mph /  38.6 km/h 61 % 0.00 in /  0 mm 728 W/m2
14:33 56.7 °F /  13.7 °C 43.4 °F /  6.3 °C 30.42 in /  1030 hPa WNW 13.0 mph /  20.9 km/h 24.0 mph /  38.6 km/h 61 % 0.00 in /  0 mm 847 W/m2
14:38 56.5 °F /  13.6 °C 42.8 °F /  6 °C 30.42 in /  1030 hPa WNW 13.0 mph /  20.9 km/h 24.0 mph /  38.6 km/h 60 % 0.00 in /  0 mm 840 W/m2
14:43 56.7 °F /  13.7 °C 42.9 °F /  6.1 °C 30.42 in /  1030 hPa WNW 12.0 mph /  19.3 km/h 24.0 mph /  38.6 km/h 60 % 0.00 in /  0 mm 204 W/m2
14:48 56.1 °F /  13.4 °C 42.4 °F /  5.8 °C 30.42 in /  1030 hPa WNW 11.0 mph /  17.7 km/h 21.0 mph /  33.8 km/h 60 % 0.00 in /  0 mm 332 W/m2
14:53 55.9 °F /  13.3 °C 43.1 °F /  6.2 °C 30.42 in /  1030 hPa WNW 10.0 mph /  16.1 km/h 19.0 mph /  30.6 km/h 62 % 0.00 in /  0 mm 429 W/m2
14:58 55.6 °F /  13.1 °C 42.3 °F /  5.7 °C 30.42 in /  1030 hPa WNW 11.0 mph /  17.7 km/h 22.0 mph /  35.4 km/h 61 % 0.00 in /  0 mm 272 W/m2
15:03 55.4 °F /  13 °C 42.6 °F /  5.9 °C 30.42 in /  1030 hPa West 14.0 mph /  22.5 km/h 23.0 mph /  37 km/h 62 % 0.00 in /  0 mm 775 W/m2
15:08 55.9 °F /  13.3 °C 43.1 °F /  6.2 °C 30.42 in /  1030 hPa WNW 13.0 mph /  20.9 km/h 23.0 mph /  37 km/h 62 % 0.00 in /  0 mm 680 W/m2
15:13 56.3 °F /  13.5 °C 43.0 °F /  6.1 °C 30.42 in /  1030 hPa WNW 13.0 mph /  20.9 km/h 23.0 mph /  37 km/h 61 % 0.00 in /  0 mm 666 W/m2
15:18 56.5 °F /  13.6 °C 43.2 °F /  6.2 °C 30.42 in /  1030 hPa WNW 14.0 mph /  22.5 km/h 22.0 mph /  35.4 km/h 61 % 0.00 in /  0 mm 490 W/m2
15:23 56.5 °F /  13.6 °C 43.6 °F /  6.4 °C 30.42 in /  1030 hPa WNW 11.0 mph /  17.7 km/h 21.0 mph /  33.8 km/h 62 % 0.00 in /  0 mm 571 W/m2
15:28 56.7 °F /  13.7 °C 42.9 °F /  6.1 °C 30.42 in /  1030 hPa WNW 10.0 mph /  16.1 km/h 18.0 mph /  29 km/h 60 % 0.00 in /  0 mm 628 W/m2
15:33 56.7 °F /  13.7 °C 42.5 °F /  5.8 °C 30.41 in /  1029.7 hPa WNW 12.0 mph /  19.3 km/h 21.0 mph /  33.8 km/h 59 % 0.00 in /  0 mm 603 W/m2
15:39 56.5 °F /  13.6 °C 42.8 °F /  6 °C 30.41 in /  1029.7 hPa WNW 14.0 mph /  22.5 km/h 24.0 mph /  38.6 km/h 60 % 0.00 in /  0 mm 462 W/m2
15:44 56.5 °F /  13.6 °C 42.8 °F /  6 °C 30.41 in /  1029.7 hPa WNW 15.0 mph /  24.1 km/h 24.0 mph /  38.6 km/h 60 % 0.00 in /  0 mm 522 W/m2
15:49 56.3 °F /  13.5 °C 42.6 °F /  5.9 °C 30.41 in /  1029.7 hPa WNW 14.0 mph /  22.5 km/h 24.0 mph /  38.6 km/h 60 % 0.00 in /  0 mm 499 W/m2
15:54 56.1 °F /  13.4 °C 42.4 °F /  5.8 °C 30.40 in /  1029.3 hPa WNW 14.0 mph /  22.5 km/h 26.0 mph /  41.8 km/h 60 % 0.00 in /  0 mm 450 W/m2
15:59 55.9 °F /  13.3 °C 42.7 °F /  5.9 °C 30.40 in /  1029.3 hPa WNW 15.0 mph /  24.1 km/h 26.0 mph /  41.8 km/h 61 % 0.00 in /  0 mm 561 W/m2
16:04 55.9 °F /  13.3 °C 42.7 °F /  5.9 °C 30.41 in /  1029.7 hPa WNW 15.0 mph /  24.1 km/h 26.0 mph /  41.8 km/h 61 % 0.00 in /  0 mm 577 W/m2
16:09 55.8 °F /  13.2 °C 42.1 °F /  5.6 °C 30.41 in /  1029.7 hPa WNW 15.0 mph /  24.1 km/h 25.0 mph /  40.2 km/h 60 % 0.00 in /  0 mm 174 W/m2
16:14 55.2 °F /  12.9 °C 42.0 °F /  5.6 °C 30.40 in /  1029.3 hPa WNW 15.0 mph /  24.1 km/h 25.0 mph /  40.2 km/h 61 % 0.00 in /  0 mm 301 W/m2
16:19 55.0 °F /  12.8 °C 42.3 °F /  5.7 °C 30.41 in /  1029.7 hPa WNW 14.0 mph /  22.5 km/h 22.0 mph /  35.4 km/h 62 % 0.00 in /  0 mm 468 W/m2
16:24 55.2 °F /  12.9 °C 42.4 °F /  5.8 °C 30.41 in /  1029.7 hPa WNW 13.0 mph /  20.9 km/h 21.0 mph /  33.8 km/h 62 % 0.00 in /  0 mm 480 W/m2
16:29 55.0 °F /  12.8 °C 42.7 °F /  5.9 °C 30.41 in /  1029.7 hPa WNW 13.0 mph /  20.9 km/h 21.0 mph /  33.8 km/h 63 % 0.00 in /  0 mm 213 W/m2
16:34 54.3 °F /  12.4 °C 42.0 °F /  5.6 °C 30.41 in /  1029.7 hPa West 13.0 mph /  20.9 km/h 21.0 mph /  33.8 km/h 63 % 0.00 in /  0 mm 178 W/m2
16:39 54.1 °F /  12.3 °C 42.2 °F /  5.7 °C 30.41 in /  1029.7 hPa West 11.0 mph /  17.7 km/h 20.0 mph /  32.2 km/h 64 % 0.00 in /  0 mm 234 W/m2
16:44 53.8 °F /  12.1 °C 41.9 °F /  5.5 °C 30.41 in /  1029.7 hPa West 12.0 mph /  19.3 km/h 23.0 mph /  37 km/h 64 % 0.00 in /  0 mm 281 W/m2
16:49 53.8 °F /  12.1 °C 42.3 °F /  5.7 °C 30.42 in /  1030 hPa West 13.0 mph /  20.9 km/h 23.0 mph /  37 km/h 65 % 0.00 in /  0 mm 366 W/m2
16:54 54.0 °F /  12.2 °C 42.5 °F /  5.8 °C 30.41 in /  1029.7 hPa WNW 12.0 mph /  19.3 km/h 22.0 mph /  35.4 km/h 65 % 0.00 in /  0 mm 209 W/m2
16:59 53.8 °F /  12.1 °C 42.7 °F /  5.9 °C 30.41 in /  1029.7 hPa WNW 12.0 mph /  19.3 km/h 22.0 mph /  35.4 km/h 66 % 0.00 in /  0 mm 171 W/m2
17:04 53.6 °F /  12 °C 42.5 °F /  5.8 °C 30.41 in /  1029.7 hPa WNW 12.0 mph /  19.3 km/h 21.0 mph /  33.8 km/h 66 % 0.00 in /  0 mm 181 W/m2
17:09 53.4 °F /  11.9 °C 42.7 °F /  5.9 °C 30.42 in /  1030 hPa WNW 12.0 mph /  19.3 km/h 21.0 mph /  33.8 km/h 67 % 0.00 in /  0 mm 185 W/m2
17:14 53.2 °F /  11.8 °C 42.6 °F /  5.9 °C 30.42 in /  1030 hPa WNW 13.0 mph /  20.9 km/h 23.0 mph /  37 km/h 67 % 0.00 in /  0 mm 195 W/m2
17:19 53.2 °F /  11.8 °C 42.6 °F /  5.9 °C 30.42 in /  1030 hPa WNW 12.0 mph /  19.3 km/h 23.0 mph /  37 km/h 67 % 0.00 in /  0 mm 274 W/m2
17:24 53.4 °F /  11.9 °C 43.1 °F /  6.2 °C 30.42 in /  1030 hPa WNW 11.0 mph /  17.7 km/h 22.0 mph /  35.4 km/h 68 % 0.00 in /  0 mm 288 W/m2
17:29 53.6 °F /  12 °C 42.9 °F /  6.1 °C 30.42 in /  1030 hPa WNW 10.0 mph /  16.1 km/h 22.0 mph /  35.4 km/h 67 % 0.00 in /  0 mm 327 W/m2
17:34 53.8 °F /  12.1 °C 43.1 °F /  6.2 °C 30.42 in /  1030 hPa West 10.0 mph /  16.1 km/h 19.0 mph /  30.6 km/h 67 % 0.00 in /  0 mm 179 W/m2
17:39 54.0 °F /  12.2 °C 43.2 °F /  6.2 °C 30.42 in /  1030 hPa WNW 10.0 mph /  16.1 km/h 19.0 mph /  30.6 km/h 67 % 0.00 in /  0 mm 288 W/m2
17:44 53.8 °F /  12.1 °C 42.7 °F /  5.9 °C 30.42 in /  1030 hPa WNW 12.0 mph /  19.3 km/h 22.0 mph /  35.4 km/h 66 % 0.00 in /  0 mm 116 W/m2
17:50 53.2 °F /  11.8 °C 42.6 °F /  5.9 °C 30.41 in /  1029.7 hPa WNW 13.0 mph /  20.9 km/h 22.0 mph /  35.4 km/h 67 % 0.00 in /  0 mm 109 W/m2
17:55 52.9 °F /  11.6 °C 42.6 °F /  5.9 °C 30.42 in /  1030 hPa WNW 12.0 mph /  19.3 km/h 22.0 mph /  35.4 km/h 68 % 0.00 in /  0 mm 97 W/m2
18:00 52.5 °F /  11.4 °C 42.3 °F /  5.7 °C 30.42 in /  1030 hPa WNW 13.0 mph /  20.9 km/h 23.0 mph /  37 km/h 68 % 0.00 in /  0 mm 137 W/m2
18:05 52.2 °F /  11.2 °C 42.3 °F /  5.7 °C 30.42 in /  1030 hPa WNW 14.0 mph /  22.5 km/h 27.0 mph /  43.5 km/h 69 % 0.00 in /  0 mm 204 W/m2
18:10 52.2 °F /  11.2 °C 42.7 °F /  5.9 °C 30.42 in /  1030 hPa WNW 12.0 mph /  19.3 km/h 27.0 mph /  43.5 km/h 70 % 0.00 in /  0 mm 200 W/m2
18:15 52.3 °F /  11.3 °C 42.8 °F /  6 °C 30.43 in /  1030.4 hPa WNW 12.0 mph /  19.3 km/h 20.0 mph /  32.2 km/h 70 % 0.00 in /  0 mm 172 W/m2
18:20 52.5 °F /  11.4 °C 43.0 °F /  6.1 °C 30.42 in /  1030 hPa WNW 11.0 mph /  17.7 km/h 20.0 mph /  32.2 km/h 70 % 0.00 in /  0 mm 183 W/m2
18:25 52.7 °F /  11.5 °C 42.8 °F /  6 °C 30.43 in /  1030.4 hPa WNW 9.0 mph /  14.5 km/h 15.0 mph /  24.1 km/h 69 % 0.00 in /  0 mm 95 W/m2
18:30 52.5 °F /  11.4 °C 43.0 °F /  6.1 °C 30.43 in /  1030.4 hPa WNW 9.0 mph /  14.5 km/h 19.0 mph /  30.6 km/h 70 % 0.00 in /  0 mm 79 W/m2
18:39 52.0 °F /  11.1 °C 42.5 °F /  5.8 °C 30.43 in /  1030.4 hPa WNW 11.0 mph /  17.7 km/h 23.0 mph /  37 km/h 70 % 0.00 in /  0 mm 93 W/m2
18:44 52.0 °F /  11.1 °C 42.5 °F /  5.8 °C 30.43 in /  1030.4 hPa WNW 13.0 mph /  20.9 km/h 23.0 mph /  37 km/h 70 % 0.00 in /  0 mm 72 W/m2
18:49 51.8 °F /  11 °C 42.7 °F /  5.9 °C 30.43 in /  1030.4 hPa WNW 13.0 mph /  20.9 km/h 23.0 mph /  37 km/h 71 % 0.00 in /  0 mm 65 W/m2
18:55 51.6 °F /  10.9 °C 42.5 °F /  5.8 °C 30.43 in /  1030.4 hPa WNW 11.0 mph /  17.7 km/h 23.0 mph /  37 km/h 71 % 0.00 in /  0 mm 49 W/m2
19:00 51.4 °F /  10.8 °C 42.3 °F /  5.7 °C 30.43 in /  1030.4 hPa WNW 11.0 mph /  17.7 km/h 23.0 mph /  37 km/h 71 % 0.00 in /  0 mm 46 W/m2
19:05 51.3 °F /  10.7 °C 42.5 °F /  5.8 °C 30.43 in /  1030.4 hPa WNW 10.0 mph /  16.1 km/h 20.0 mph /  32.2 km/h 72 % 0.00 in /  0 mm 46 W/m2
19:10 51.3 °F /  10.7 °C 42.5 °F /  5.8 °C 30.44 in /  1030.7 hPa WNW 8.0 mph /  12.9 km/h 20.0 mph /  32.2 km/h 72 % 0.00 in /  0 mm 33 W/m2
19:15 51.1 °F /  10.6 °C 42.4 °F /  5.8 °C 30.43 in /  1030.4 hPa WNW 8.0 mph /  12.9 km/h 14.0 mph /  22.5 km/h 72 % 0.00 in /  0 mm 28 W/m2
19:20 50.9 °F /  10.5 °C 42.2 °F /  5.7 °C 30.44 in /  1030.7 hPa WNW 11.0 mph /  17.7 km/h 22.0 mph /  35.4 km/h 72 % 0.00 in /  0 mm 25 W/m2
19:25 50.7 °F /  10.4 °C 42.0 °F /  5.6 °C 30.44 in /  1030.7 hPa WNW 12.0 mph /  19.3 km/h 22.0 mph /  35.4 km/h 72 % 0.00 in /  0 mm 18 W/m2
19:30 50.5 °F /  10.3 °C 42.2 °F /  5.7 °C 30.44 in /  1030.7 hPa WNW 9.0 mph /  14.5 km/h 19.0 mph /  30.6 km/h 73 % 0.00 in /  0 mm 14 W/m2
19:35 50.5 °F /  10.3 °C 42.2 °F /  5.7 °C 30.44 in /  1030.7 hPa WNW 9.0 mph /  14.5 km/h 19.0 mph /  30.6 km/h 73 % 0.00 in /  0 mm 9 W/m2
19:40 50.4 °F /  10.2 °C 42.0 °F /  5.6 °C 30.44 in /  1030.7 hPa WNW 11.0 mph /  17.7 km/h 21.0 mph /  33.8 km/h 73 % 0.00 in /  0 mm 9 W/m2
19:45 50.2 °F /  10.1 °C 42.2 °F /  5.7 °C 30.44 in /  1030.7 hPa WNW 11.0 mph /  17.7 km/h 21.0 mph /  33.8 km/h 74 % 0.00 in /  0 mm 7 W/m2
19:50 50.0 °F /  10 °C 42.0 °F /  5.6 °C 30.44 in /  1030.7 hPa WNW 10.0 mph /  16.1 km/h 18.0 mph /  29 km/h 74 % 0.00 in /  0 mm 5 W/m2
19:55 49.8 °F /  9.9 °C 41.9 °F /  5.5 °C 30.44 in /  1030.7 hPa WNW 10.0 mph /  16.1 km/h 18.0 mph /  29 km/h 74 % 0.00 in /  0 mm 0 W/m2
20:00 49.6 °F /  9.8 °C 41.7 °F /  5.4 °C 30.44 in /  1030.7 hPa WNW 10.0 mph /  16.1 km/h 16.0 mph /  25.7 km/h 74 % 0.00 in /  0 mm 0 W/m2
20:05 49.5 °F /  9.7 °C 41.9 °F /  5.5 °C 30.44 in /  1030.7 hPa WNW 10.0 mph /  16.1 km/h 16.0 mph /  25.7 km/h 75 % 0.00 in /  0 mm 0 W/m2
20:10 49.3 °F /  9.6 °C 42.0 °F /  5.6 °C 30.45 in /  1031 hPa WNW 10.0 mph /  16.1 km/h 16.0 mph /  25.7 km/h 76 % 0.00 in /  0 mm 0 W/m2
20:15 49.1 °F /  9.5 °C 41.9 °F /  5.5 °C 30.45 in /  1031 hPa WNW 7.0 mph /  11.3 km/h 14.0 mph /  22.5 km/h 76 % 0.00 in /  0 mm 0 W/m2
20:20 48.9 °F /  9.4 °C 42.0 °F /  5.6 °C 30.44 in /  1030.7 hPa WNW 7.0 mph /  11.3 km/h 18.0 mph /  29 km/h 77 % 0.00 in /  0 mm 0 W/m2
20:25 48.7 °F /  9.3 °C 41.8 °F /  5.4 °C 30.45 in /  1031 hPa WNW 9.0 mph /  14.5 km/h 18.0 mph /  29 km/h 77 % 0.00 in /  0 mm 0 W/m2
20:30 48.6 °F /  9.2 °C 42.0 °F /  5.6 °C 30.45 in /  1031 hPa WNW 8.0 mph /  12.9 km/h 16.0 mph /  25.7 km/h 78 % 0.00 in /  0 mm 0 W/m2
20:35 48.4 °F /  9.1 °C 41.8 °F /  5.4 °C 30.45 in /  1031 hPa WNW 7.0 mph /  11.3 km/h 13.0 mph /  20.9 km/h 78 % 0.00 in /  0 mm 0 W/m2
20:40 48.4 °F /  9.1 °C 41.8 °F /  5.4 °C 30.45 in /  1031 hPa WNW 8.0 mph /  12.9 km/h 14.0 mph /  22.5 km/h 78 % 0.00 in /  0 mm 0 W/m2
20:45 48.0 °F /  8.9 °C 41.5 °F /  5.3 °C 30.45 in /  1031 hPa WNW 8.0 mph /  12.9 km/h 14.0 mph /  22.5 km/h 78 % 0.00 in /  0 mm 0 W/m2
20:50 47.8 °F /  8.8 °C 41.6 °F /  5.3 °C 30.46 in /  1031.4 hPa WNW 7.0 mph /  11.3 km/h 11.0 mph /  17.7 km/h 79 % 0.00 in /  0 mm 0 W/m2
20:55 47.8 °F /  8.8 °C 41.6 °F /  5.3 °C 30.46 in /  1031.4 hPa West 6.0 mph /  9.7 km/h 11.0 mph /  17.7 km/h 79 % 0.00 in /  0 mm 0 W/m2
21:00 47.7 °F /  8.7 °C 41.5 °F /  5.3 °C 30.45 in /  1031 hPa WNW 8.0 mph /  12.9 km/h 15.0 mph /  24.1 km/h 79 % 0.00 in /  0 mm 0 W/m2
21:05 47.7 °F /  8.7 °C 41.8 °F /  5.4 °C 30.45 in /  1031 hPa WNW 8.0 mph /  12.9 km/h 15.0 mph /  24.1 km/h 80 % 0.00 in /  0 mm 0 W/m2
21:10 47.5 °F /  8.6 °C 41.6 °F /  5.3 °C 30.46 in /  1031.4 hPa WNW 7.0 mph /  11.3 km/h 12.0 mph /  19.3 km/h 80 % 0.00 in /  0 mm 0 W/m2
21:15 47.3 °F /  8.5 °C 41.4 °F /  5.2 °C 30.47 in /  1031.7 hPa WNW 6.0 mph /  9.7 km/h 11.0 mph /  17.7 km/h 80 % 0.00 in /  0 mm 0 W/m2
21:20 47.1 °F /  8.4 °C 41.3 °F /  5.2 °C 30.46 in /  1031.4 hPa WNW 6.0 mph /  9.7 km/h 11.0 mph /  17.7 km/h 80 % 0.00 in /  0 mm 0 W/m2
21:21 47.1 °F /  8.4 °C 41.3 °F /  5.2 °C 30.46 in /  1031.4 hPa WNW 6.0 mph /  9.7 km/h 11.0 mph /  17.7 km/h 80 % 0.00 in /  0 mm 0 W/m2
21:26 46.9 °F /  8.3 °C 41.4 °F /  5.2 °C 30.46 in /  1031.4 hPa WNW 6.0 mph /  9.7 km/h 11.0 mph /  17.7 km/h 81 % 0.00 in /  0 mm 0 W/m2
21:31 46.8 °F /  8.2 °C 41.2 °F /  5.1 °C 30.47 in /  1031.7 hPa WNW 6.0 mph /  9.7 km/h 11.0 mph /  17.7 km/h 81 % 0.00 in /  0 mm 0 W/m2
21:37 46.8 °F /  8.2 °C 41.2 °F /  5.1 °C 30.47 in /  1031.7 hPa WNW 5.0 mph /  8 km/h 11.0 mph /  17.7 km/h 81 % 0.00 in /  0 mm 0 W/m2
21:42 46.6 °F /  8.1 °C 41.1 °F /  5.1 °C 30.46 in /  1031.4 hPa WNW 6.0 mph /  9.7 km/h 12.0 mph /  19.3 km/h 81 % 0.00 in /  0 mm 0 W/m2
21:47 46.4 °F /  8 °C 41.2 °F /  5.1 °C 30.47 in /  1031.7 hPa NW 6.0 mph /  9.7 km/h 12.0 mph /  19.3 km/h 82 % 0.00 in /  0 mm 0 W/m2
21:52 46.4 °F /  8 °C 41.2 °F /  5.1 °C 30.47 in /  1031.7 hPa WNW 5.0 mph /  8 km/h 12.0 mph /  19.3 km/h 82 % 0.00 in /  0 mm 0 W/m2
21:57 46.2 °F /  7.9 °C 41.0 °F /  5 °C 30.47 in /  1031.7 hPa WNW 4.0 mph /  6.4 km/h 12.0 mph /  19.3 km/h 82 % 0.00 in /  0 mm 0 W/m2
22:02 46.2 °F /  7.9 °C 41.0 °F /  5 °C 30.47 in /  1031.7 hPa NW 4.0 mph /  6.4 km/h 10.0 mph /  16.1 km/h 82 % 0.00 in /  0 mm 0 W/m2
22:07 46.0 °F /  7.8 °C 41.2 °F /  5.1 °C 30.47 in /  1031.7 hPa NW 5.0 mph /  8 km/h 10.0 mph /  16.1 km/h 83 % 0.00 in /  0 mm 0 W/m2
22:12 46.0 °F /  7.8 °C 41.2 °F /  5.1 °C 30.47 in /  1031.7 hPa WNW 5.0 mph /  8 km/h 10.0 mph /  16.1 km/h 83 % 0.00 in /  0 mm 0 W/m2
22:17 46.0 °F /  7.8 °C 41.2 °F /  5.1 °C 30.46 in /  1031.4 hPa WNW 4.0 mph /  6.4 km/h 10.0 mph /  16.1 km/h 83 % 0.00 in /  0 mm 0 W/m2
22:22 45.9 °F /  7.7 °C 41.0 °F /  5 °C 30.46 in /  1031.4 hPa WNW 4.0 mph /  6.4 km/h 9.0 mph /  14.5 km/h 83 % 0.00 in /  0 mm 0 W/m2
22:27 45.9 °F /  7.7 °C 41.0 °F /  5 °C 30.46 in /  1031.4 hPa WNW 5.0 mph /  8 km/h 10.0 mph /  16.1 km/h 83 % 0.00 in /  0 mm 0 W/m2
22:32 45.7 °F /  7.6 °C 40.8 °F /  4.9 °C 30.46 in /  1031.4 hPa WNW 5.0 mph /  8 km/h 10.0 mph /  16.1 km/h 83 % 0.00 in /  0 mm 0 W/m2
22:37 45.7 °F /  7.6 °C 40.8 °F /  4.9 °C 30.46 in /  1031.4 hPa WNW 5.0 mph /  8 km/h 10.0 mph /  16.1 km/h 83 % 0.00 in /  0 mm 0 W/m2
22:42 45.5 °F /  7.5 °C 40.6 °F /  4.8 °C 30.46 in /  1031.4 hPa NW 4.0 mph /  6.4 km/h 10.0 mph /  16.1 km/h 83 % 0.00 in /  0 mm 0 W/m2
22:47 45.5 °F /  7.5 °C 40.9 °F /  4.9 °C 30.46 in /  1031.4 hPa WNW 4.0 mph /  6.4 km/h 11.0 mph /  17.7 km/h 84 % 0.00 in /  0 mm 0 W/m2
22:52 45.3 °F /  7.4 °C 40.8 °F /  4.9 °C 30.46 in /  1031.4 hPa WNW 5.0 mph /  8 km/h 11.0 mph /  17.7 km/h 84 % 0.00 in /  0 mm 0 W/m2
22:57 45.3 °F /  7.4 °C 40.8 °F /  4.9 °C 30.46 in /  1031.4 hPa WNW 5.0 mph /  8 km/h 9.0 mph /  14.5 km/h 84 % 0.00 in /  0 mm 0 W/m2
23:02 45.1 °F /  7.3 °C 40.6 °F /  4.8 °C 30.46 in /  1031.4 hPa WNW 4.0 mph /  6.4 km/h 8.0 mph /  12.9 km/h 84 % 0.00 in /  0 mm 0 W/m2
23:07 45.1 °F /  7.3 °C 40.6 °F /  4.8 °C 30.47 in /  1031.7 hPa WNW 3.0 mph /  4.8 km/h 8.0 mph /  12.9 km/h 84 % 0.00 in /  0 mm 0 W/m2
23:12 45.0 °F /  7.2 °C 40.4 °F /  4.7 °C 30.46 in /  1031.4 hPa WNW 3.0 mph /  4.8 km/h 8.0 mph /  12.9 km/h 84 % 0.00 in /  0 mm 0 W/m2
23:17 44.8 °F /  7.1 °C 40.5 °F /  4.7 °C 30.46 in /  1031.4 hPa WNW 4.0 mph /  6.4 km/h 8.0 mph /  12.9 km/h 85 % 0.00 in /  0 mm 0 W/m2
23:22 44.8 °F /  7.1 °C 40.5 °F /  4.7 °C 30.47 in /  1031.7 hPa WNW 4.0 mph /  6.4 km/h 8.0 mph /  12.9 km/h 85 % 0.00 in /  0 mm 0 W/m2
23:27 44.8 °F /  7.1 °C 40.5 °F /  4.7 °C 30.47 in /  1031.7 hPa WNW 4.0 mph /  6.4 km/h 9.0 mph /  14.5 km/h 85 % 0.00 in /  0 mm 0 W/m2
23:32 44.8 °F /  7.1 °C 40.5 °F /  4.7 °C 30.47 in /  1031.7 hPa NW 5.0 mph /  8 km/h 10.0 mph /  16.1 km/h 85 % 0.00 in /  0 mm 0 W/m2
23:37 44.8 °F /  7.1 °C 40.5 °F /  4.7 °C 30.47 in /  1031.7 hPa WNW 4.0 mph /  6.4 km/h 10.0 mph /  16.1 km/h 85 % 0.00 in /  0 mm 0 W/m2
23:42 44.6 °F /  7 °C 40.4 °F /  4.7 °C 30.47 in /  1031.7 hPa WNW 2.0 mph /  3.2 km/h 7.0 mph /  11.3 km/h 85 % 0.00 in /  0 mm 0 W/m2
23:47 44.4 °F /  6.9 °C 40.2 °F /  4.6 °C 30.47 in /  1031.7 hPa WNW 2.0 mph /  3.2 km/h 5.0 mph /  8 km/h 85 % 0.00 in /  0 mm 0 W/m2
23:52 44.2 °F /  6.8 °C 40.0 °F /  4.4 °C 30.47 in /  1031.7 hPa WNW 2.0 mph /  3.2 km/h 7.0 mph /  11.3 km/h 85 % 0.00 in /  0 mm 0 W/m2
Delerius-Weather
Compliments of Weather Underground - 2.25 mb

Data updates at regular intervals.